St. Veit, Austria
Current Conditions -  °F | °C
As of 4:50 AM on Friday 28 Nov 2014 (Local Time) from LOWW Reporting Station
Drizzle Drizzle  
Wind Chill: 25°   Ceiling: 400
Heat Index: 34°   Visibility: 2mi
Dew Point: 34°   Wind: 13mph
Humidity: 100%   Direction: 120°ESE
Pressure: 30"   Gusts: NA
Location:  47.93°N, 16.15°E
Report Text: LOWW 280250Z 12011KT 3300 -DZ BR SCT003 BKN004 01/01 Q1016 TEMPO 2000
Loading
Personal Weather Stations






























Interactive Weather Map New forecast layout! Learn more

10-Day Weather Forecast

Advertisements
Track Severe Weather on mobile